Time;durP1;ratioP1;P1;durP2;ratioP2;P2;SDS_P1;SDS_P2;PMS_P1;PMS_P2;Temp;Humidity;BMP_temperature;BMP_pressure;BME280_temperature;BME280_humidity;BME280_pressure;Samples;Min_cycle;Max_cycle;Signal;HPM_P1;HPM_P2
2022/02/18 00:01:16;;;;;;;11.23;3.70;;;27.70;62.30;;;;;;5073191;28;20167;-81
2022/02/18 00:03:45;;;;;;;14.20;4.10;;;27.70;61.30;;;;;;5071412;28;20219;-80
2022/02/18 00:06:13;;;;;;;16.33;3.23;;;27.80;61.30;;;;;;5073251;28;20179;-80
2022/02/18 00:08:40;;;;;;;11.03;4.30;;;27.80;60.90;;;;;;5072082;28;20175;-77
2022/02/18 00:11:08;;;;;;;13.20;4.20;;;27.90;61.20;;;;;;5073620;28;20190;-75
2022/02/18 00:13:36;;;;;;;17.47;4.60;;;28.30;59.60;;;;;;5071427;28;20222;-77
2022/02/18 00:16:05;;;;;;;12.93;4.23;;;28.30;58.70;;;;;;5071067;28;20195;-75
2022/02/18 00:18:48;;;;;;;12.60;3.97;;;28.30;59.60;;;;;;5069714;28;20202;-74
2022/02/18 00:21:15;;;;;;;11.83;3.93;;;28.30;59.40;;;;;;5072153;28;20175;-76
2022/02/18 00:23:43;;;;;;;11.47;3.97;;;28.30;60.10;;;;;;5071230;28;20199;-74
2022/02/18 00:26:11;;;;;;;13.87;4.73;;;28.30;59.70;;;;;;5071713;28;20174;-75
2022/02/18 00:28:42;;;;;;;16.47;3.93;;;28.50;59.40;;;;;;5072304;28;20537;-76
2022/02/18 00:31:10;;;;;;;14.47;4.30;;;28.70;59.00;;;;;;5069210;28;20171;-77
2022/02/18 00:33:37;;;;;;;18.00;5.13;;;28.90;58.90;;;;;;5067824;28;20228;-78
2022/02/18 00:36:05;;;;;;;14.10;4.60;;;28.90;58.90;;;;;;5070062;28;20207;-83
2022/02/18 00:38:32;;;;;;;13.00;4.90;;;28.70;60.10;;;;;;5070439;28;21390;-82
2022/02/18 00:41:00;;;;;;;14.87;4.03;;;28.60;59.30;;;;;;5069335;28;20678;-76
2022/02/18 00:43:30;;;;;;;14.43;4.50;;;28.30;59.80;;;;;;5069390;28;20230;-77
2022/02/18 00:46:00;;;;;;;12.97;4.53;;;28.60;59.20;;;;;;5066444;28;20187;-78
2022/02/18 00:48:30;;;;;;;12.80;4.13;;;28.60;58.50;;;;;;5069751;28;20179;-77
2022/02/18 00:50:58;;;;;;;12.77;4.20;;;28.30;59.60;;;;;;5072173;28;20186;-79
2022/02/18 00:53:25;;;;;;;19.87;4.60;;;28.60;59.60;;;;;;5071230;28;20190;-78
2022/02/18 00:55:53;;;;;;;14.90;4.23;;;28.90;59.10;;;;;;5068479;28;20858;-80
2022/02/18 00:58:20;;;;;;;13.03;4.30;;;29.30;58.50;;;;;;5065571;28;20176;-81
2022/02/18 01:00:51;;;;;;;17.43;4.50;;;29.30;59.00;;;;;;5070342;28;20262;-76
2022/02/18 01:03:19;;;;;;;15.90;4.60;;;29.30;58.90;;;;;;5067799;28;20219;-81
2022/02/18 01:05:49;;;;;;;16.47;4.37;;;29.30;59.00;;;;;;5071579;28;20202;-82
2022/02/18 01:08:20;;;;;;;16.93;4.60;;;29.50;59.00;;;;;;5069214;28;20270;-90
2022/02/18 01:10:48;;;;;;;17.70;4.80;;;29.00;60.10;;;;;;5068911;28;20183;-80
2022/02/18 01:13:15;;;;;;;10.30;4.27;;;28.80;60.50;;;;;;5071158;28;20198;-81
2022/02/18 01:15:42;;;;;;;14.97;4.37;;;29.20;60.70;;;;;;5069416;28;20179;-85
2022/02/18 01:18:10;;;;;;;12.77;4.70;;;28.80;61.40;;;;;;5067500;28;20197;-80
2022/02/18 01:20:37;;;;;;;16.23;5.33;;;29.00;59.80;;;;;;5066444;28;20184;-85
2022/02/18 01:23:05;;;;;;;16.90;5.00;;;29.30;60.40;;;;;;5067283;28;20207;-79
2022/02/18 01:25:36;;;;;;;14.17;5.00;;;29.60;57.90;;;;;;5070949;28;20208;-82
2022/02/18 01:28:03;;;;;;;14.57;4.47;;;29.70;57.70;;;;;;5049314;28;20180;-81
2022/02/18 01:30:33;;;;;;;12.20;4.10;;;29.80;58.20;;;;;;5068503;28;20707;-81
2022/02/18 01:33:02;;;;;;;11.50;4.50;;;29.90;57.60;;;;;;5069384;28;20179;-87
2022/02/18 01:35:34;;;;;;;15.37;4.67;;;29.60;58.00;;;;;;5065124;28;21762;-81
2022/02/18 01:38:05;;;;;;;22.37;5.07;;;29.60;57.60;;;;;;5067966;28;20209;-86
2022/02/18 01:40:33;;;;;;;14.60;4.47;;;29.80;56.90;;;;;;5069870;28;20198;-78
2022/02/18 01:43:03;;;;;;;14.13;4.23;;;29.80;58.60;;;;;;5065929;28;20234;-81
2022/02/18 01:45:33;;;;;;;16.83;4.57;;;29.60;57.80;;;;;;5067530;28;20207;-81
2022/02/18 01:48:00;;;;;;;15.17;5.10;;;29.60;59.90;;;;;;5068243;28;20186;-79
2022/02/18 01:50:28;;;;;;;15.80;4.67;;;29.60;59.50;;;;;;5069267;28;20527;-79
2022/02/18 01:52:56;;;;;;;16.60;4.70;;;29.50;60.60;;;;;;5066839;28;20179;-80
2022/02/18 01:55:25;;;;;;;16.10;4.90;;;29.80;60.70;;;;;;5069076;28;20282;-80
2022/02/18 01:57:57;;;;;;;19.20;5.10;;;30.30;58.40;;;;;;5065326;28;20258;-78
2022/02/18 02:00:27;;;;;;;17.83;4.20;;;30.60;58.30;;;;;;5065182;28;20201;-79
2022/02/18 02:02:56;;;;;;;17.07;4.60;;;30.00;60.30;;;;;;5067146;28;20251;-79
2022/02/18 02:05:24;;;;;;;12.10;4.47;;;29.90;60.70;;;;;;5068488;28;20187;-80
2022/02/18 02:07:52;;;;;;;19.17;4.83;;;29.90;61.10;;;;;;5070182;28;20171;-79
2022/02/18 02:10:19;;;;;;;18.25;4.60;;;29.40;62.20;;;;;;5071227;28;20267;-80
2022/02/18 02:12:54;;;;;;;15.82;4.50;;;29.50;62.10;;;;;;5071586;28;20189;-79
2022/02/18 02:15:27;;;;;;;16.50;5.03;;;29.60;61.70;;;;;;5067677;28;20189;-80
2022/02/18 02:17:59;;;;;;;19.40;5.10;;;29.70;60.90;;;;;;5071482;28;20201;-82
2022/02/18 02:20:26;;;;;;;11.90;4.50;;;29.80;61.70;;;;;;5070856;28;20197;-77
2022/02/18 02:22:54;;;;;;;15.60;4.27;;;29.90;61.30;;;;;;5070617;28;20755;-79
2022/02/18 02:25:21;;;;;;;12.97;4.53;;;30.30;59.70;;;;;;5069276;28;20220;-79
2022/02/18 02:27:49;;;;;;;11.60;4.00;;;30.60;59.00;;;;;;5071496;28;20581;-81
2022/02/18 02:30:17;;;;;;;15.75;4.30;;;30.60;58.20;;;;;;5072106;28;20178;-82
2022/02/18 02:32:45;;;;;;;15.07;3.90;;;30.30;59.10;;;;;;5071319;28;20172;-80
2022/02/18 02:35:12;;;;;;;16.75;3.95;;;29.90;59.90;;;;;;5071309;28;20171;-79
2022/02/18 02:37:39;;;;;;;17.33;4.37;;;30.00;60.30;;;;;;5067749;28;20179;-80
2022/02/18 02:40:07;;;;;;;13.87;4.20;;;29.90;60.90;;;;;;5070847;28;20202;-78
2022/02/18 02:42:35;;;;;;;26.57;4.30;;;29.70;61.50;;;;;;5070288;28;20219;-80
2022/02/18 02:45:02;;;;;;;17.03;4.60;;;29.10;63.10;;;;;;5071368;28;20653;-78
2022/02/18 02:47:31;;;;;;;16.50;4.50;;;29.30;63.70;;;;;;5074700;28;20301;-81
2022/02/18 02:49:59;;;;;;;9.05;3.97;;;29.80;61.60;;;;;;5076192;28;20204;-79
2022/02/18 02:52:26;;;;;;;15.80;4.87;;;29.90;61.80;;;;;;5075547;28;20171;-78
2022/02/18 02:54:53;;;;;;;20.83;4.37;;;30.30;60.70;;;;;;5079872;28;20641;-81
2022/02/18 02:57:21;;;;;;;18.88;5.15;;;30.30;60.40;;;;;;5074522;28;20203;-77
2022/02/18 02:59:48;;;;;;;15.48;4.22;;;30.60;58.60;;;;;;5074946;28;20203;-80
2022/02/18 03:02:16;;;;;;;15.60;4.47;;;30.80;57.80;;;;;;5074225;28;20213;-80
2022/02/18 03:04:43;;;;;;;14.82;4.43;;;30.80;57.70;;;;;;5074467;28;20171;-80
2022/02/18 03:07:10;;;;;;;15.95;4.72;;;30.90;56.80;;;;;;5073881;28;20172;-78
2022/02/18 03:09:38;;;;;;;15.88;4.00;;;31.20;56.90;;;;;;5074010;28;20183;-78
2022/02/18 03:12:06;;;;;;;17.38;4.15;;;31.30;56.20;;;;;;5073850;28;20179;-81
2022/02/18 03:14:33;;;;;;;15.75;3.90;;;31.60;55.70;;;;;;5073744;28;20657;-85
2022/02/18 03:17:01;;;;;;;18.67;4.35;;;31.20;56.50;;;;;;5073899;28;20201;-79
2022/02/18 03:19:28;;;;;;;14.95;3.83;;;31.20;56.40;;;;;;5072793;28;20585;-80
2022/02/18 03:21:57;;;;;;;15.73;4.53;;;31.30;56.90;;;;;;5071145;28;20183;-79
2022/02/18 03:24:25;;;;;;;12.27;4.20;;;31.20;56.80;;;;;;5074289;28;20183;-79
2022/02/18 03:26:52;;;;;;;14.50;3.88;;;31.00;57.20;;;;;;5073801;28;20209;-76
2022/02/18 03:29:19;;;;;;;9.63;3.53;;;31.80;54.80;;;;;;5072593;28;20179;-80
2022/02/18 03:31:47;;;;;;;18.05;3.97;;;32.00;53.90;;;;;;5073559;28;20179;-80
2022/02/18 03:34:15;;;;;;;12.93;3.97;;;32.30;53.60;;;;;;5072808;28;20175;-80
2022/02/18 03:36:42;;;;;;;14.45;4.18;;;32.30;52.80;;;;;;5073644;28;20179;-79
2022/02/18 03:39:10;;;;;;;18.98;3.97;;;32.40;53.60;;;;;;5072701;28;20589;-81
2022/02/18 03:41:37;;;;;;;11.32;3.35;;;32.30;52.50;;;;;;5073586;28;20299;-78
2022/02/18 03:44:08;;;;;;;11.30;3.40;;;32.10;53.00;;;;;;5073359;28;20310;-80
2022/02/18 03:46:35;;;;;;;14.65;3.67;;;32.20;52.60;;;;;;5066560;28;20159;-81
2022/02/18 03:49:04;;;;;;;11.70;2.88;;;32.10;52.80;;;;;;5072976;28;20202;-80
2022/02/18 03:51:31;;;;;;;11.10;3.25;;;32.80;50.90;;;;;;5072718;28;20182;-77
2022/02/18 03:53:58;;;;;;;6.03;2.85;;;33.20;50.40;;;;;;5072323;28;20183;-78
2022/02/18 03:56:26;;;;;;;11.90;3.28;;;32.10;51.70;;;;;;5073600;28;20325;-76
2022/02/18 03:58:53;;;;;;;14.23;3.20;;;32.00;52.90;;;;;;5074101;28;20203;-79
2022/02/18 04:01:21;;;;;;;12.68;3.80;;;32.80;50.70;;;;;;5077477;28;20183;-81
2022/02/18 04:03:48;;;;;;;11.52;3.75;;;31.80;52.80;;;;;;5074105;28;20203;-79
2022/02/18 04:06:15;;;;;;;13.07;3.65;;;32.10;52.30;;;;;;5064932;28;20219;-82
2022/02/18 04:08:43;;;;;;;11.80;3.20;;;32.50;51.40;;;;;;5072769;28;20232;-76
2022/02/18 04:11:10;;;;;;;17.23;3.80;;;33.30;50.50;;;;;;5071768;28;20280;-82
2022/02/18 04:13:37;;;;;;;10.32;3.30;;;32.50;52.20;;;;;;5073068;28;20585;-77
2022/02/18 04:16:05;;;;;;;13.85;3.75;;;31.80;53.20;;;;;;5071281;28;20176;-78
2022/02/18 04:18:32;;;;;;;9.45;2.97;;;32.00;52.40;;;;;;5073015;28;20190;-79
2022/02/18 04:20:59;;;;;;;11.48;3.13;;;32.40;51.60;;;;;;5072461;28;20186;-81
2022/02/18 04:23:27;;;;;;;12.23;3.42;;;32.10;52.10;;;;;;5073102;28;20738;-77
2022/02/18 04:25:54;;;;;;;12.02;3.28;;;32.50;51.80;;;;;;5072437;28;20228;-80
2022/02/18 04:28:21;;;;;;;10.25;2.75;;;32.60;51.30;;;;;;5071047;28;20599;-78
2022/02/18 04:30:49;;;;;;;8.63;2.65;;;32.90;51.20;;;;;;5072780;28;20202;-76
2022/02/18 04:33:17;;;;;;;7.97;2.65;;;33.00;49.10;;;;;;5071968;28;20675;-79
2022/02/18 04:35:44;;;;;;;7.55;2.58;;;32.90;49.10;;;;;;5072963;28;20256;-78
2022/02/18 04:38:12;;;;;;;9.50;2.90;;;32.80;49.80;;;;;;5072665;28;20203;-81
2022/02/18 04:40:40;;;;;;;7.97;2.88;;;32.90;49.40;;;;;;5072465;28;20171;-79
2022/02/18 04:43:07;;;;;;;10.13;2.63;;;32.80;49.60;;;;;;5070945;28;20226;-81
2022/02/18 04:45:34;;;;;;;12.13;2.90;;;32.40;50.40;;;;;;5067805;28;20533;-77
2022/02/18 04:48:02;;;;;;;14.77;2.95;;;32.20;52.20;;;;;;5071462;28;20182;-80
2022/02/18 04:50:29;;;;;;;8.57;2.40;;;33.70;48.00;;;;;;5070765;28;20171;-78
2022/02/18 04:53:00;;;;;;;11.82;3.00;;;34.00;46.50;;;;;;5068603;28;20193;-83
2022/02/18 04:55:27;;;;;;;8.23;2.22;;;33.70;46.30;;;;;;5071911;28;20175;-78
2022/02/18 04:57:54;;;;;;;7.03;2.72;;;31.80;51.50;;;;;;5070924;28;20201;-77
2022/02/18 05:00:22;;;;;;;10.75;2.90;;;31.60;52.40;;;;;;5069939;28;20543;-76
2022/02/18 05:02:49;;;;;;;13.40;2.80;;;32.30;49.60;;;;;;5067766;28;20206;-81
2022/02/18 05:05:17;;;;;;;11.77;2.90;;;32.60;48.70;;;;;;5068286;28;20560;-77
2022/02/18 05:07:44;;;;;;;9.55;2.83;;;32.80;47.00;;;;;;5068681;28;20719;-77
2022/02/18 05:10:12;;;;;;;7.65;2.30;;;33.50;45.30;;;;;;5072015;28;20175;-81
2022/02/18 05:12:39;;;;;;;11.82;2.67;;;31.90;48.80;;;;;;5071269;28;20175;-78
2022/02/18 05:15:07;;;;;;;10.15;3.17;;;32.70;46.80;;;;;;5070922;28;20182;-81
2022/02/18 05:17:35;;;;;;;8.48;2.03;;;32.60;48.50;;;;;;5070522;28;20611;-79
2022/02/18 05:20:03;;;;;;;8.45;2.67;;;32.80;46.90;;;;;;5071685;28;20168;-83
2022/02/18 05:22:30;;;;;;;10.45;2.63;;;31.80;49.00;;;;;;5069861;28;20559;-82
2022/02/18 05:24:57;;;;;;;8.35;2.97;;;31.50;50.20;;;;;;5071865;28;20646;-78
2022/02/18 05:27:25;;;;;;;14.82;3.13;;;30.30;54.10;;;;;;5069454;28;20188;-78
2022/02/18 05:29:52;;;;;;;12.82;6.30;;;30.70;54.00;;;;;;5063927;28;20179;-78
2022/02/18 05:32:19;;;;;;;9.77;2.92;;;31.10;53.10;;;;;;5064008;28;20271;-83
2022/02/18 05:34:50;;;;;;;11.23;2.92;;;30.80;53.30;;;;;;5065394;28;20224;-80
2022/02/18 05:37:17;;;;;;;12.02;2.80;;;30.90;53.40;;;;;;5066934;28;20181;-78
2022/02/18 05:39:46;;;;;;;8.90;2.50;;;30.40;54.10;;;;;;5067831;28;20751;-81
2022/02/18 05:42:13;;;;;;;12.73;3.13;;;30.50;55.30;;;;;;5068372;28;20230;-77
2022/02/18 05:44:41;;;;;;;9.77;5.40;;;30.30;55.40;;;;;;5069778;28;20284;-80
2022/02/18 05:47:08;;;;;;;17.20;7.33;;;29.50;57.40;;;;;;5070872;28;20171;-79
2022/02/18 05:49:35;;;;;;;12.67;4.33;;;29.30;57.60;;;;;;5070846;28;20606;-79
2022/02/18 05:52:03;;;;;;;13.67;4.87;;;29.10;59.70;;;;;;5067276;28;20175;-79
2022/02/18 05:54:30;;;;;;;10.35;3.50;;;29.50;58.70;;;;;;5067778;28;20225;-79
2022/02/18 05:56:58;;;;;;;17.25;3.17;;;30.00;57.90;;;;;;5068258;28;20175;-85
2022/02/18 05:59:28;;;;;;;11.80;3.17;;;30.20;56.90;;;;;;5069302;28;20301;-77
2022/02/18 06:01:55;;;;;;;8.57;2.70;;;29.80;57.60;;;;;;5070701;28;20179;-79
2022/02/18 06:04:23;;;;;;;11.67;2.97;;;29.50;58.50;;;;;;5068967;28;20615;-75
2022/02/18 06:06:51;;;;;;;9.47;2.97;;;29.00;60.50;;;;;;5062035;28;20190;-80
2022/02/18 06:09:18;;;;;;;9.70;2.90;;;29.10;59.90;;;;;;5070581;28;20624;-83
2022/02/18 06:11:45;;;;;;;11.87;3.70;;;28.90;60.50;;;;;;5069859;28;20183;-83
2022/02/18 06:14:13;;;;;;;10.87;2.77;;;30.00;57.50;;;;;;5070307;28;20183;-79
2022/02/18 06:16:40;;;;;;;13.07;3.33;;;31.30;53.00;;;;;;5070297;28;20175;-79
2022/02/18 06:19:07;;;;;;;9.88;3.25;;;32.20;49.90;;;;;;5071639;28;20506;-78
2022/02/18 06:21:37;;;;;;;8.48;2.60;;;32.20;50.00;;;;;;5074859;28;20175;-81
2022/02/18 06:24:04;;;;;;;5.38;2.25;;;32.50;49.00;;;;;;5074941;28;20211;-82
2022/02/18 06:26:31;;;;;;;7.95;2.47;;;32.60;48.20;;;;;;5073570;28;20262;-83
2022/02/18 06:28:59;;;;;;;7.40;2.75;;;32.60;47.60;;;;;;5071046;28;20179;-79
2022/02/18 06:31:26;;;;;;;8.60;2.83;;;32.60;46.40;;;;;;5073941;28;20168;-80
2022/02/18 06:33:54;;;;;;;12.73;2.90;;;33.10;46.80;;;;;;5073896;28;20211;-79
2022/02/18 06:36:21;;;;;;;7.70;2.30;;;33.30;45.90;;;;;;5073894;28;20182;-76
2022/02/18 06:38:48;;;;;;;12.23;2.75;;;33.40;45.90;;;;;;5073649;28;20207;-80
2022/02/18 06:41:16;;;;;;;7.80;2.28;;;32.80;47.70;;;;;;5070685;28;20254;-74
2022/02/18 06:43:43;;;;;;;14.52;3.13;;;31.10;52.90;;;;;;5071669;28;20207;-85
2022/02/18 06:46:11;;;;;;;9.57;2.60;;;30.00;56.50;;;;;;5073219;28;20203;-75
2022/02/18 06:48:38;;;;;;;9.55;2.60;;;29.20;59.00;;;;;;5071053;28;20237;-76
2022/02/18 06:51:06;;;;;;;11.48;3.03;;;28.80;60.70;;;;;;5073033;28;20167;-75
2022/02/18 06:53:34;;;;;;;11.27;3.30;;;28.70;61.50;;;;;;5073312;28;20195;-76
2022/02/18 06:56:01;;;;;;;12.87;3.20;;;28.30;63.00;;;;;;5072931;28;20199;-76
2022/02/18 06:58:28;;;;;;;10.63;3.07;;;28.20;63.60;;;;;;5073421;28;20822;-77
2022/02/18 07:00:56;;;;;;;11.90;3.83;;;27.90;65.00;;;;;;5073712;28;20228;-78
2022/02/18 07:03:23;;;;;;;11.83;3.30;;;28.00;65.00;;;;;;5073941;28;20733;-76
2022/02/18 07:05:51;;;;;;;19.23;3.27;;;28.10;64.80;;;;;;5072414;28;20270;-79
2022/02/18 07:08:18;;;;;;;18.60;3.43;;;27.90;65.40;;;;;;5073195;28;20203;-78
2022/02/18 07:10:46;;;;;;;14.07;3.60;;;27.90;65.60;;;;;;5072571;28;20229;-77
2022/02/18 07:13:13;;;;;;;10.90;3.30;;;28.30;63.70;;;;;;5072149;28;20187;-78
2022/02/18 07:15:40;;;;;;;18.80;3.37;;;29.30;60.70;;;;;;5071787;28;20201;-80
2022/02/18 07:18:08;;;;;;;12.03;3.40;;;29.70;59.30;;;;;;5074051;28;20270;-76
2022/02/18 07:20:35;;;;;;;18.07;3.67;;;29.70;58.30;;;;;;5069444;28;20178;-76
2022/02/18 07:23:04;;;;;;;10.38;2.80;;;29.90;58.00;;;;;;5072737;28;20273;-78
2022/02/18 07:25:32;;;;;;;13.82;3.13;;;29.50;59.60;;;;;;5073672;28;20183;-79
2022/02/18 07:27:59;;;;;;;10.87;3.50;;;28.80;62.10;;;;;;5069047;28;20637;-76
2022/02/18 07:30:27;;;;;;;16.53;3.17;;;27.80;65.70;;;;;;5072987;28;20171;-79
2022/02/18 07:32:54;;;;;;;14.93;3.97;;;27.60;66.60;;;;;;5073042;28;20172;-83
2022/02/18 07:35:22;;;;;;;12.27;3.37;;;27.60;66.70;;;;;;5073023;28;20182;-79
2022/02/18 07:37:49;;;;;;;11.07;3.37;;;27.40;67.40;;;;;;5071895;28;20171;-77
2022/02/18 07:40:18;;;;;;;12.90;4.57;;;27.40;67.80;;;;;;5072447;28;20232;-77
2022/02/18 07:42:45;;;;;;;17.10;4.33;;;27.20;68.50;;;;;;5073530;28;20282;-79
2022/02/18 07:45:13;;;;;;;16.67;3.97;;;26.90;69.30;;;;;;5069217;28;20187;-76
2022/02/18 07:47:40;;;;;;;11.10;4.20;;;26.90;69.80;;;;;;5072855;28;20171;-77
2022/02/18 07:50:08;;;;;;;21.97;4.50;;;26.80;69.80;;;;;;5072471;28;21629;-78
2022/02/18 07:52:37;;;;;;;9.13;3.33;;;27.00;69.00;;;;;;5069026;28;20187;-77
2022/02/18 07:55:05;;;;;;;20.17;4.43;;;27.20;68.80;;;;;;5071772;28;20218;-79
2022/02/18 07:57:32;;;;;;;11.13;3.83;;;27.70;67.40;;;;;;5069720;28;20262;-76
2022/02/18 07:59:59;;;;;;;16.47;4.63;;;27.80;66.80;;;;;;5072187;28;20664;-75
2022/02/18 08:02:27;;;;;;;11.63;3.90;;;27.80;67.00;;;;;;5072424;28;20202;-78
2022/02/18 08:04:54;;;;;;;16.90;4.10;;;27.50;67.30;;;;;;5073744;28;20183;-77
2022/02/18 08:07:21;;;;;;;16.70;4.27;;;27.30;68.10;;;;;;5069107;28;20926;-76
2022/02/18 08:09:49;;;;;;;18.77;4.63;;;26.90;69.60;;;;;;5072542;28;20240;-76
2022/02/18 08:12:16;;;;;;;17.17;3.43;;;26.80;69.80;;;;;;5073629;28;20183;-77
2022/02/18 08:14:44;;;;;;;21.83;4.30;;;26.70;70.40;;;;;;5073243;28;20266;-76
2022/02/18 08:17:11;;;;;;;14.00;4.27;;;26.40;72.20;;;;;;5073243;28;20206;-76
2022/02/18 08:19:38;;;;;;;22.07;4.37;;;26.20;73.70;;;;;;5073603;28;20187;-76
2022/02/18 08:22:06;;;;;;;11.23;3.90;;;26.20;73.60;;;;;;5070102;28;20195;-76
2022/02/18 08:24:33;;;;;;;16.67;4.70;;;26.20;73.30;;;;;;5072062;28;20198;-84
2022/02/18 08:27:01;;;;;;;20.90;4.43;;;26.10;73.80;;;;;;5073762;28;20176;-79
2022/02/18 08:29:29;;;;;;;16.40;4.17;;;26.10;73.60;;;;;;5072386;28;20198;-76
2022/02/18 08:31:56;;;;;;;17.87;5.53;;;26.10;73.60;;;;;;5073525;28;20181;-75
2022/02/18 08:34:24;;;;;;;16.77;5.03;;;26.10;73.40;;;;;;5073127;28;20222;-78
2022/02/18 08:36:52;;;;;;;19.57;4.50;;;26.10;73.80;;;;;;5072877;28;20189;-75
2022/02/18 08:39:19;;;;;;;15.70;4.50;;;26.00;73.50;;;;;;5072880;28;20175;-76
2022/02/18 08:41:47;;;;;;;16.67;4.27;;;25.90;74.10;;;;;;5073075;28;20223;-75
2022/02/18 08:44:14;;;;;;;15.70;4.07;;;25.90;74.40;;;;;;5072248;28;20615;-76
2022/02/18 08:46:42;;;;;;;23.17;4.33;;;25.80;74.20;;;;;;5066698;28;20656;-76
2022/02/18 08:49:11;;;;;;;13.83;3.87;;;25.60;74.80;;;;;;5073619;28;20187;-75
2022/02/18 08:51:38;;;;;;;15.77;4.20;;;25.60;75.40;;;;;;5072999;28;20175;-79
2022/02/18 08:54:07;;;;;;;18.37;4.30;;;25.50;76.10;;;;;;5072946;28;20540;-75
2022/02/18 08:56:35;;;;;;;19.07;4.57;;;25.50;76.30;;;;;;5065698;28;20206;-79
2022/02/18 08:59:04;;;;;;;20.43;4.97;;;25.40;76.20;;;;;;5073161;28;20172;-76
2022/02/18 09:01:32;;;;;;;16.07;4.53;;;25.30;76.10;;;;;;5064357;28;20235;-76
2022/02/18 09:03:59;;;;;;;10.13;3.40;;;25.40;75.60;;;;;;5072604;28;20693;-75
2022/02/18 09:06:27;;;;;;;17.40;3.53;;;25.30;75.60;;;;;;5072523;28;20175;-76
2022/02/18 09:08:54;;;;;;;12.00;3.10;;;25.30;75.50;;;;;;5072584;28;20175;-76
2022/02/18 09:11:22;;;;;;;15.07;3.47;;;25.10;75.50;;;;;;5072365;28;20668;-77
2022/02/18 09:13:49;;;;;;;17.83;4.27;;;25.20;75.60;;;;;;5072592;28;20183;-77
2022/02/18 09:16:19;;;;;;;14.63;3.60;;;25.20;75.40;;;;;;5063645;28;20220;-77
2022/02/18 09:18:47;;;;;;;17.47;4.10;;;25.10;75.30;;;;;;5072501;28;20224;-75
2022/02/18 09:21:14;;;;;;;20.10;4.10;;;25.00;75.60;;;;;;5072121;28;20538;-73
2022/02/18 09:23:42;;;;;;;17.73;4.60;;;25.00;75.70;;;;;;5072439;28;20221;-80
2022/02/18 09:26:10;;;;;;;17.43;4.90;;;24.90;78.40;;;;;;5073393;28;20179;-77
2022/02/18 09:28:37;;;;;;;17.53;4.80;;;24.70;79.00;;;;;;5076689;28;20270;-80
2022/02/18 09:31:04;;;;;;;16.97;4.97;;;24.60;79.40;;;;;;5071575;28;20645;-79
2022/02/18 09:33:33;;;;;;;18.23;5.80;;;24.40;80.00;;;;;;5072040;28;20225;-78
2022/02/18 09:36:00;;;;;;;21.17;5.80;;;24.30;79.60;;;;;;5071774;28;20179;-77
2022/02/18 09:38:28;;;;;;;20.87;5.83;;;24.30;79.60;;;;;;5071395;28;20649;-77
2022/02/18 09:40:56;;;;;;;17.53;5.97;;;24.20;78.80;;;;;;5071566;28;20183;-77
2022/02/18 09:43:24;;;;;;;16.70;6.30;;;24.30;78.20;;;;;;5071219;28;20261;-77
2022/02/18 09:45:51;;;;;;;17.43;5.93;;;24.30;78.10;;;;;;5071315;28;20171;-80
2022/02/18 09:48:19;;;;;;;17.47;5.43;;;24.30;77.90;;;;;;5071732;28;20179;-78
2022/02/18 09:50:47;;;;;;;14.47;5.47;;;24.30;77.20;;;;;;5071730;28;20561;-76
2022/02/18 09:53:15;;;;;;;14.13;5.10;;;24.30;76.70;;;;;;5071095;28;20183;-78
2022/02/18 09:55:43;;;;;;;15.57;5.20;;;24.30;75.80;;;;;;5071886;28;20257;-78
2022/02/18 09:58:11;;;;;;;14.87;5.43;;;24.30;75.80;;;;;;5071175;28;20190;-73
2022/02/18 10:00:39;;;;;;;16.70;6.00;;;24.50;75.90;;;;;;5071661;28;20179;-78
2022/02/18 10:03:08;;;;;;;14.43;4.53;;;24.50;75.20;;;;;;5071559;28;20542;-80
2022/02/18 10:05:36;;;;;;;16.53;5.70;;;24.40;75.00;;;;;;5070777;28;20183;-79
2022/02/18 10:08:15;;;;;;;11.83;5.33;;;24.40;75.40;;;;;;5068758;28;20310;-79
2022/02/18 10:10:57;;;;;;;19.63;5.27;;;24.40;75.40;;;;;;5064238;28;20534;-74
2022/02/18 10:13:35;;;;;;;23.37;6.30;;;24.30;76.00;;;;;;5071170;28;20191;-81
2022/02/18 10:16:05;;;;;;;25.33;6.40;;;24.30;76.50;;;;;;5073960;28;20637;-79
2022/02/18 10:18:51;;;;;;;34.20;6.40;;;24.30;76.80;;;;;;5070723;28;20179;-76
2022/02/18 10:21:45;;;;;;;24.77;6.53;;;24.20;77.20;;;;;;5069544;28;20175;-78
2022/02/18 10:24:21;;;;;;;31.70;7.13;;;24.20;77.00;;;;;;5066932;28;20248;-75
2022/02/18 10:26:51;;;;;;;25.50;6.50;;;24.00;76.50;;;;;;5071809;28;20178;-82
2022/02/18 10:29:23;;;;;;;21.87;6.57;;;23.90;76.10;;;;;;5068566;28;20180;-79
2022/02/18 10:32:18;;;;;;;32.17;6.73;;;24.00;75.80;;;;;;5068016;28;20630;-81
2022/02/18 10:34:57;;;;;;;24.57;6.60;;;23.90;75.80;;;;;;5069869;28;20271;-78
2022/02/18 10:37:26;;;;;;;28.63;6.70;;;23.80;76.60;;;;;;5071434;28;20549;-79
2022/02/18 10:40:14;;;;;;;26.77;6.77;;;23.80;77.20;;;;;;5070463;28;20171;-79
2022/02/18 10:42:46;;;;;;;24.67;6.10;;;23.70;76.90;;;;;;5066459;28;20254;-78
2022/02/18 10:45:19;;;;;;;24.70;6.47;;;23.60;76.80;;;;;;5071033;28;20318;-75
2022/02/18 10:47:49;;;;;;;22.87;5.77;;;23.60;76.70;;;;;;5069537;28;20182;-77
2022/02/18 10:50:25;;;;;;;30.40;6.07;;;23.60;76.20;;;;;;5070997;28;20229;-81
2022/02/18 10:53:16;;;;;;;28.93;6.07;;;23.60;75.60;;;;;;5069242;28;20261;-78
2022/02/18 10:55:56;;;;;;;29.90;6.00;;;23.60;75.60;;;;;;5071178;28;20638;-79
2022/02/18 10:58:35;;;;;;;24.47;5.73;;;23.70;75.50;;;;;;5069854;28;20285;-78
2022/02/18 11:01:13;;;;;;;29.57;6.77;;;23.80;75.30;;;;;;5070701;28;20167;-78
2022/02/18 11:04:01;;;;;;;27.43;6.40;;;23.80;75.20;;;;;;5068914;28;20233;-79
2022/02/18 11:06:31;;;;;;;19.80;5.53;;;23.60;74.30;;;;;;5071951;28;20186;-81
2022/02/18 11:09:08;;;;;;;27.83;6.20;;;23.70;74.10;;;;;;5070357;28;20178;-79
2022/02/18 11:11:46;;;;;;;24.17;5.57;;;23.70;74.00;;;;;;5073500;28;20163;-78
2022/02/18 11:14:18;;;;;;;25.13;6.17;;;23.70;74.10;;;;;;5074025;28;20202;-77
2022/02/18 11:16:52;;;;;;;24.90;6.03;;;23.70;73.80;;;;;;5092268;28;20217;-80
2022/02/18 11:19:23;;;;;;;21.23;5.30;;;23.70;73.60;;;;;;5072903;28;20175;-76
2022/02/18 11:21:50;;;;;;;22.40;4.90;;;23.70;72.70;;;;;;5073972;28;20191;-82
2022/02/18 11:24:24;;;;;;;26.73;5.60;;;23.60;72.30;;;;;;5072460;28;20210;-77
2022/02/18 11:26:52;;;;;;;21.63;5.40;;;23.60;72.50;;;;;;5073993;28;20171;-74
2022/02/18 11:29:20;;;;;;;19.10;5.03;;;23.50;72.30;;;;;;5070306;28;20630;-76
2022/02/18 11:31:55;;;;;;;23.50;5.73;;;23.50;72.20;;;;;;5073511;28;20175;-75
2022/02/18 11:34:40;;;;;;;19.70;4.80;;;23.50;72.20;;;;;;5074225;28;20565;-79
2022/02/18 11:37:20;;;;;;;25.33;5.53;;;23.50;72.60;;;;;;5071386;28;20171;-77
2022/02/18 11:40:09;;;;;;;20.93;5.30;;;23.50;73.40;;;;;;5069925;28;20645;-78
2022/02/18 11:43:01;;;;;;;19.90;5.90;;;23.50;73.90;;;;;;5073788;28;20280;-78
2022/02/18 11:45:29;;;;;;;21.13;5.17;;;23.30;74.80;;;;;;5074066;28;20711;-76
2022/02/18 11:47:56;;;;;;;20.77;5.53;;;23.30;75.20;;;;;;5073830;28;20171;-85
2022/02/18 11:50:32;;;;;;;24.40;5.60;;;23.20;75.00;;;;;;5073217;28;20608;-77
2022/02/18 11:53:02;;;;;;;17.53;5.00;;;23.10;75.50;;;;;;5073258;28;20266;-83
2022/02/18 11:55:35;;;;;;;28.47;5.00;;;23.10;74.70;;;;;;5072363;28;20250;-79
2022/02/18 11:58:17;;;;;;;21.53;4.43;;;23.20;73.90;;;;;;5073376;28;20210;-76
2022/02/18 12:00:48;;;;;;;19.27;4.70;;;23.20;73.70;;;;;;5071079;28;20198;-74
2022/02/18 12:03:20;;;;;;;25.63;5.07;;;23.30;73.40;;;;;;5071991;28;20211;-79
2022/02/18 12:06:07;;;;;;;20.77;4.90;;;23.30;71.60;;;;;;5068281;28;20241;-76
2022/02/18 12:08:39;;;;;;;19.80;4.13;;;23.30;70.80;;;;;;5072146;28;20190;-78
2022/02/18 12:11:12;;;;;;;24.50;5.17;;;23.30;70.90;;;;;;5068775;28;20258;-77
2022/02/18 12:14:12;;;;;;;22.80;4.73;;;23.30;70.80;;;;;;5075546;27;20175;-78
2022/02/18 12:16:41;;;;;;;24.67;12.13;;;23.30;70.60;;;;;;5072723;28;20179;-77
2022/02/18 12:19:15;;;;;;;19.63;4.87;;;23.30;70.70;;;;;;5070860;28;20180;-83
2022/02/18 12:22:01;;;;;;;21.97;4.37;;;23.30;71.00;;;;;;5070652;28;20624;-75
2022/02/18 12:24:34;;;;;;;20.60;4.20;;;23.30;71.00;;;;;;5073187;28;20246;-80
2022/02/18 12:27:22;;;;;;;24.33;4.90;;;23.30;71.20;;;;;;5072203;28;20203;-81
2022/02/18 12:29:51;;;;;;;16.70;4.03;;;23.40;71.20;;;;;;5068688;28;20511;-81
2022/02/18 12:32:19;;;;;;;19.90;4.53;;;23.40;70.70;;;;;;5074883;28;20178;-76
2022/02/18 12:35:04;;;;;;;18.23;4.00;;;23.30;70.50;;;;;;5073210;28;20265;-75
2022/02/18 12:37:33;;;;;;;24.57;4.73;;;23.30;70.40;;;;;;5072076;28;20250;-80
2022/02/18 12:40:04;;;;;;;19.43;5.03;;;23.30;70.00;;;;;;5073433;28;20171;-76
2022/02/18 12:42:36;;;;;;;16.80;4.13;;;23.30;69.40;;;;;;5073073;28;20223;-75
2022/02/18 12:45:09;;;;;;;22.97;4.87;;;23.30;69.60;;;;;;5071094;28;20209;-81
2022/02/18 12:47:36;;;;;;;17.23;4.10;;;23.30;69.50;;;;;;5068878;28;20571;-78
2022/02/18 12:50:07;;;;;;;18.53;4.27;;;23.30;69.70;;;;;;5071401;28;20206;-76